sensor_id;sensor_type;location;lat;lon;timestamp;pressure;altitude;pressure_sealevel;temperature;humidity
47985;BME280;33753;52.912;-7.342;2023-03-20T00:01:14;100087.03;;;9.34;100.00
47985;BME280;33753;52.912;-7.342;2023-03-20T00:03:45;100093.13;;;9.36;100.00
47985;BME280;33753;52.912;-7.342;2023-03-20T00:06:15;100089.38;;;9.37;100.00
47985;BME280;33753;52.912;-7.342;2023-03-20T00:08:46;100082.16;;;9.38;100.00
47985;BME280;33753;52.912;-7.342;2023-03-20T00:11:27;100081.28;;;9.37;100.00
47985;BME280;33753;52.912;-7.342;2023-03-20T00:13:58;100096.47;;;9.38;100.00
47985;BME280;33753;52.912;-7.342;2023-03-20T00:16:30;100099.00;;;9.40;100.00
47985;BME280;33753;52.912;-7.342;2023-03-20T00:19:00;100101.88;;;9.38;100.00
47985;BME280;33753;52.912;-7.342;2023-03-20T00:21:29;100087.38;;;9.39;100.00
47985;BME280;33753;52.912;-7.342;2023-03-20T00:23:58;100090.06;;;9.39;100.00
47985;BME280;33753;52.912;-7.342;2023-03-20T00:26:29;100082.97;;;9.38;100.00
47985;BME280;33753;52.912;-7.342;2023-03-20T00:29:01;100084.84;;;9.38;100.00
47985;BME280;33753;52.912;-7.342;2023-03-20T00:31:32;100081.28;;;9.37;100.00
47985;BME280;33753;52.912;-7.342;2023-03-20T00:34:04;100069.47;;;9.38;100.00
47985;BME280;33753;52.912;-7.342;2023-03-20T00:36:32;100062.38;;;9.37;100.00
47985;BME280;33753;52.912;-7.342;2023-03-20T00:39:01;100068.66;;;9.38;100.00
47985;BME280;33753;52.912;-7.342;2023-03-20T00:41:36;100073.19;;;9.37;100.00
47985;BME280;33753;52.912;-7.342;2023-03-20T00:44:17;100080.28;;;9.38;100.00
47985;BME280;33753;52.912;-7.342;2023-03-20T00:46:48;100086.38;;;9.40;100.00
47985;BME280;33753;52.912;-7.342;2023-03-20T00:49:19;100087.84;;;9.43;100.00
47985;BME280;33753;52.912;-7.342;2023-03-20T00:51:49;100080.97;;;9.40;100.00
47985;BME280;33753;52.912;-7.342;2023-03-20T00:54:18;100087.19;;;9.41;100.00
47985;BME280;33753;52.912;-7.342;2023-03-20T00:56:54;100092.06;;;9.45;100.00
47985;BME280;33753;52.912;-7.342;2023-03-20T00:59:27;100085.66;;;9.46;100.00
47985;BME280;33753;52.912;-7.342;2023-03-20T01:01:57;100084.97;;;9.44;100.00
47985;BME280;33753;52.912;-7.342;2023-03-20T01:04:30;100076.22;;;9.42;100.00
47985;BME280;33753;52.912;-7.342;2023-03-20T01:07:01;100077.06;;;9.43;100.00
47985;BME280;33753;52.912;-7.342;2023-03-20T01:09:30;100080.44;;;9.45;100.00
47985;BME280;33753;52.912;-7.342;2023-03-20T01:11:59;100067.13;;;9.43;100.00
47985;BME280;33753;52.912;-7.342;2023-03-20T01:14:28;100075.22;;;9.43;100.00
47985;BME280;33753;52.912;-7.342;2023-03-20T01:16:56;100073.53;;;9.42;100.00
47985;BME280;33753;52.912;-7.342;2023-03-20T01:19:25;100067.13;;;9.43;100.00
47985;BME280;33753;52.912;-7.342;2023-03-20T01:21:53;100063.72;;;9.41;100.00
47985;BME280;33753;52.912;-7.342;2023-03-20T01:24:22;100053.44;;;9.45;100.00
47985;BME280;33753;52.912;-7.342;2023-03-20T01:26:50;100060.34;;;9.47;100.00
47985;BME280;33753;52.912;-7.342;2023-03-20T01:29:24;100059.00;;;9.43;100.00
47985;BME280;33753;52.912;-7.342;2023-03-20T01:31:53;100047.19;;;9.44;100.00
47985;BME280;33753;52.912;-7.342;2023-03-20T01:34:24;100042.81;;;9.43;100.00
47985;BME280;33753;52.912;-7.342;2023-03-20T01:36:56;100057.97;;;9.44;100.00
47985;BME280;33753;52.912;-7.342;2023-03-20T01:39:30;100055.97;;;9.46;100.00
47985;BME280;33753;52.912;-7.342;2023-03-20T01:42:01;100057.97;;;9.44;100.00
47985;BME280;33753;52.912;-7.342;2023-03-20T01:44:34;100059.66;;;9.45;100.00
47985;BME280;33753;52.912;-7.342;2023-03-20T01:47:14;100060.50;;;9.46;100.00
47985;BME280;33753;52.912;-7.342;2023-03-20T01:50:15;100054.59;;;9.50;100.00
47985;BME280;33753;52.912;-7.342;2023-03-20T01:52:48;100060.00;;;9.50;100.00
47985;BME280;33753;52.912;-7.342;2023-03-20T01:55:18;100057.31;;;9.50;100.00
47985;BME280;33753;52.912;-7.342;2023-03-20T01:57:56;100052.56;;;9.52;100.00
47985;BME280;33753;52.912;-7.342;2023-03-20T02:00:31;100049.03;;;9.52;100.00
47985;BME280;33753;52.912;-7.342;2023-03-20T02:03:00;100049.03;;;9.52;100.00
47985;BME280;33753;52.912;-7.342;2023-03-20T02:05:53;100056.59;;;9.57;100.00
47985;BME280;33753;52.912;-7.342;2023-03-20T02:08:26;100055.59;;;9.58;100.00
47985;BME280;33753;52.912;-7.342;2023-03-20T02:11:00;100057.41;;;9.57;100.00
47985;BME280;33753;52.912;-7.342;2023-03-20T02:13:31;100064.50;;;9.58;100.00
47985;BME280;33753;52.912;-7.342;2023-03-20T02:16:04;100053.06;;;9.56;100.00
47985;BME280;33753;52.912;-7.342;2023-03-20T02:18:57;100036.19;;;9.54;100.00
47985;BME280;33753;52.912;-7.342;2023-03-20T02:21:51;100044.81;;;9.49;100.00
47985;BME280;33753;52.912;-7.342;2023-03-20T02:28:00;100015.75;;;9.51;100.00
47985;BME280;33753;52.912;-7.342;2023-03-20T02:31:02;100013.75;;;9.54;100.00
47985;BME280;33753;52.912;-7.342;2023-03-20T02:33:48;100001.06;;;9.54;100.00
47985;BME280;33753;52.912;-7.342;2023-03-20T02:36:52;100003.78;;;9.54;100.00
47985;BME280;33753;52.912;-7.342;2023-03-20T02:39:50;100011.22;;;9.52;100.00
47985;BME280;33753;52.912;-7.342;2023-03-20T02:42:29;100006.31;;;9.56;100.00
47985;BME280;33753;52.912;-7.342;2023-03-20T02:45:06;100001.25;;;9.52;100.00
47985;BME280;33753;52.912;-7.342;2023-03-20T02:47:41;99995.50;;;9.56;100.00
47985;BME280;33753;52.912;-7.342;2023-03-20T02:50:22;100002.13;;;9.53;100.00
47985;BME280;33753;52.912;-7.342;2023-03-20T02:53:01;99999.56;;;9.51;100.00
47985;BME280;33753;52.912;-7.342;2023-03-20T02:55:39;99988.44;;;9.55;100.00
47985;BME280;33753;52.912;-7.342;2023-03-20T02:58:13;99994.84;;;9.54;100.00
47985;BME280;33753;52.912;-7.342;2023-03-20T03:00:47;99993.34;;;9.51;100.00
47985;BME280;33753;52.912;-7.342;2023-03-20T03:03:21;100001.25;;;9.52;100.00
47985;BME280;33753;52.912;-7.342;2023-03-20T03:05:53;100011.69;;;9.56;100.00
47985;BME280;33753;52.912;-7.342;2023-03-20T03:08:26;100018.78;;;9.57;100.00
47985;BME280;33753;52.912;-7.342;2023-03-20T03:11:02;100019.78;;;9.56;100.00
47985;BME280;33753;52.912;-7.342;2023-03-20T03:13:36;100025.03;;;9.57;100.00
47985;BME280;33753;52.912;-7.342;2023-03-20T03:16:10;100022.13;;;9.59;100.00
47985;BME280;33753;52.912;-7.342;2023-03-20T03:18:41;100019.44;;;9.59;100.00
47985;BME280;33753;52.912;-7.342;2023-03-20T03:21:11;100031.75;;;9.61;100.00
47985;BME280;33753;52.912;-7.342;2023-03-20T03:23:43;100020.97;;;9.61;100.00
47985;BME280;33753;52.912;-7.342;2023-03-20T03:26:20;100025.16;;;9.64;100.00
47985;BME280;33753;52.912;-7.342;2023-03-20T03:28:51;100020.78;;;9.63;100.00
47985;BME280;33753;52.912;-7.342;2023-03-20T03:31:22;100018.94;;;9.63;100.00
47985;BME280;33753;52.912;-7.342;2023-03-20T03:33:52;100012.34;;;9.66;100.00
47985;BME280;33753;52.912;-7.342;2023-03-20T03:36:41;100015.19;;;9.64;100.00
47985;BME280;33753;52.912;-7.342;2023-03-20T03:39:21;100003.09;;;9.60;100.00
47985;BME280;33753;52.912;-7.342;2023-03-20T03:41:58;100012.16;;;9.67;100.00
47985;BME280;33753;52.912;-7.342;2023-03-20T03:44:36;100003.22;;;9.67;100.00
47985;BME280;33753;52.912;-7.342;2023-03-20T03:47:09;100007.78;;;9.66;100.00
47985;BME280;33753;52.912;-7.342;2023-03-20T03:49:43;99999.50;;;9.68;100.00
47985;BME280;33753;52.912;-7.342;2023-03-20T03:52:15;100015.53;;;9.69;100.00
47985;BME280;33753;52.912;-7.342;2023-03-20T03:54:47;100006.94;;;9.66;100.00
47985;BME280;33753;52.912;-7.342;2023-03-20T03:57:41;100012.34;;;9.66;100.00
47985;BME280;33753;52.912;-7.342;2023-03-20T04:00:18;100010.66;;;9.65;100.00
47985;BME280;33753;52.912;-7.342;2023-03-20T04:02:50;100001.53;;;9.66;100.00
47985;BME280;33753;52.912;-7.342;2023-03-20T04:05:20;99991.94;;;9.63;100.00
47985;BME280;33753;52.912;-7.342;2023-03-20T04:07:53;99988.03;;;9.66;100.00
47985;BME280;33753;52.912;-7.342;2023-03-20T04:10:22;99985.34;;;9.66;100.00
47985;BME280;33753;52.912;-7.342;2023-03-20T04:12:52;99987.38;;;9.64;100.00
47985;BME280;33753;52.912;-7.342;2023-03-20T04:15:21;99975.56;;;9.65;100.00
47985;BME280;33753;52.912;-7.342;2023-03-20T04:17:49;99975.22;;;9.60;100.00
47985;BME280;33753;52.912;-7.342;2023-03-20T04:20:18;99968.63;;;9.62;100.00
47985;BME280;33753;52.912;-7.342;2023-03-20T04:22:47;99974.03;;;9.62;100.00
47985;BME280;33753;52.912;-7.342;2023-03-20T04:25:18;99966.13;;;9.61;100.00
47985;BME280;33753;52.912;-7.342;2023-03-20T04:27:49;99964.44;;;9.60;100.00
47985;BME280;33753;52.912;-7.342;2023-03-20T04:30:37;99955.19;;;9.54;100.00
47985;BME280;33753;52.912;-7.342;2023-03-20T04:33:23;99951.84;;;9.52;100.00
47985;BME280;33753;52.912;-7.342;2023-03-20T04:36:04;99958.59;;;9.48;100.00
47985;BME280;33753;52.912;-7.342;2023-03-20T04:38:33;99948.44;;;9.50;100.00
47985;BME280;33753;52.912;-7.342;2023-03-20T04:41:01;99954.03;;;9.48;100.00
47985;BME280;33753;52.912;-7.342;2023-03-20T04:43:30;99947.63;;;9.49;100.00
47985;BME280;33753;52.912;-7.342;2023-03-20T04:46:00;99944.09;;;9.49;100.00
47985;BME280;33753;52.912;-7.342;2023-03-20T04:48:29;99932.25;;;9.50;100.00
47985;BME280;33753;52.912;-7.342;2023-03-20T04:50:57;99942.56;;;9.46;100.00
47985;BME280;33753;52.912;-7.342;2023-03-20T04:53:41;99943.94;;;9.42;100.00
47985;BME280;33753;52.912;-7.342;2023-03-20T04:56:09;99941.97;;;9.36;100.00
47985;BME280;33753;52.912;-7.342;2023-03-20T04:58:38;99947.00;;;9.39;100.00
47985;BME280;33753;52.912;-7.342;2023-03-20T05:01:10;99947.47;;;9.43;100.00
47985;BME280;33753;52.912;-7.342;2023-03-20T05:03:38;99944.97;;;9.41;100.00
47985;BME280;33753;52.912;-7.342;2023-03-20T05:06:08;99946.66;;;9.42;100.00
47985;BME280;33753;52.912;-7.342;2023-03-20T05:08:39;99950.00;;;9.44;100.00
47985;BME280;33753;52.912;-7.342;2023-03-20T05:11:08;99950.69;;;9.46;100.00
47985;BME280;33753;52.912;-7.342;2023-03-20T05:13:55;99950.50;;;9.48;100.00
47985;BME280;33753;52.912;-7.342;2023-03-20T05:16:51;99951.31;;;9.48;100.00
47985;BME280;33753;52.912;-7.342;2023-03-20T05:19:32;99936.81;;;9.49;100.00
47985;BME280;33753;52.912;-7.342;2023-03-20T05:22:11;99931.59;;;9.48;100.00
47985;BME280;33753;52.912;-7.342;2023-03-20T05:24:51;99932.06;;;9.51;100.00
47985;BME280;33753;52.912;-7.342;2023-03-20T05:27:35;99934.78;;;9.51;100.00
47985;BME280;33753;52.912;-7.342;2023-03-20T05:30:33;99939.34;;;9.51;100.00
47985;BME280;33753;52.912;-7.342;2023-03-20T05:33:21;99921.94;;;9.54;100.00
47985;BME280;33753;52.912;-7.342;2023-03-20T05:36:12;99922.31;;;9.50;100.00
47985;BME280;33753;52.912;-7.342;2023-03-20T05:39:01;99922.31;;;9.50;100.00
47985;BME280;33753;52.912;-7.342;2023-03-20T05:41:29;99918.09;;;9.48;100.00
47985;BME280;33753;52.912;-7.342;2023-03-20T05:44:16;99920.13;;;9.46;100.00
47985;BME280;33753;52.912;-7.342;2023-03-20T05:47:05;99911.88;;;9.47;100.00
47985;BME280;33753;52.912;-7.342;2023-03-20T05:49:52;99916.91;;;9.50;100.00
47985;BME280;33753;52.912;-7.342;2023-03-20T05:52:37;99916.56;;;9.54;100.00
47985;BME280;33753;52.912;-7.342;2023-03-20T05:55:27;99905.75;;;9.54;100.00
47985;BME280;33753;52.912;-7.342;2023-03-20T05:58:12;99898.66;;;9.52;100.00
47985;BME280;33753;52.912;-7.342;2023-03-20T06:01:02;99902.69;;;9.57;100.00
47985;BME280;33753;52.912;-7.342;2023-03-20T06:03:56;99905.38;;;9.57;100.00
47985;BME280;33753;52.912;-7.342;2023-03-20T06:06:49;99904.56;;;9.56;100.00
47985;BME280;33753;52.912;-7.342;2023-03-20T06:09:18;99902.69;;;9.57;100.00
47985;BME280;33753;52.912;-7.342;2023-03-20T06:11:47;99889.19;;;9.57;100.00
47985;BME280;33753;52.912;-7.342;2023-03-20T06:14:17;99893.09;;;9.54;100.00
47985;BME280;33753;52.912;-7.342;2023-03-20T06:16:53;99895.13;;;9.52;100.00
47985;BME280;33753;52.912;-7.342;2023-03-20T06:19:23;99898.31;;;9.56;100.00
47985;BME280;33753;52.912;-7.342;2023-03-20T06:21:53;99896.97;;;9.51;100.00
47985;BME280;33753;52.912;-7.342;2023-03-20T06:24:23;99901.53;;;9.51;100.00
47985;BME280;33753;52.912;-7.342;2023-03-20T06:26:52;99901.91;;;9.48;100.00
47985;BME280;33753;52.912;-7.342;2023-03-20T06:29:20;99904.41;;;9.49;100.00
47985;BME280;33753;52.912;-7.342;2023-03-20T06:31:51;99899.38;;;9.46;100.00
47985;BME280;33753;52.912;-7.342;2023-03-20T06:34:27;99911.50;;;9.50;100.00
47985;BME280;33753;52.912;-7.342;2023-03-20T06:36:57;99898.47;;;9.54;100.00
47985;BME280;33753;52.912;-7.342;2023-03-20T06:39:25;99908.63;;;9.52;100.00
47985;BME280;33753;52.912;-7.342;2023-03-20T06:41:55;99900.34;;;9.54;100.00
47985;BME280;33753;52.912;-7.342;2023-03-20T06:44:24;99888.59;;;9.46;100.00
47985;BME280;33753;52.912;-7.342;2023-03-20T06:47:11;99897.34;;;9.48;100.00
47985;BME280;33753;52.912;-7.342;2023-03-20T06:49:40;99903.09;;;9.45;100.00
47985;BME280;33753;52.912;-7.342;2023-03-20T06:52:15;99910.19;;;9.46;100.00
47985;BME280;33753;52.912;-7.342;2023-03-20T06:54:53;99912.69;;;9.48;100.00
47985;BME280;33753;52.912;-7.342;2023-03-20T06:57:22;99896.69;;;9.46;100.00
47985;BME280;33753;52.912;-7.342;2023-03-20T06:59:51;99904.78;;;9.46;100.00
47985;BME280;33753;52.912;-7.342;2023-03-20T07:02:20;99897.03;;;9.43;100.00
47985;BME280;33753;52.912;-7.342;2023-03-20T07:04:48;99899.75;;;9.43;100.00
47985;BME280;33753;52.912;-7.342;2023-03-20T07:07:19;99896.00;;;9.44;100.00
47985;BME280;33753;52.912;-7.342;2023-03-20T07:09:47;99899.56;;;9.45;100.00
47985;BME280;33753;52.912;-7.342;2023-03-20T07:12:16;99898.06;;;9.42;100.00
47985;BME280;33753;52.912;-7.342;2023-03-20T07:14:46;99903.09;;;9.45;100.00
47985;BME280;33753;52.912;-7.342;2023-03-20T07:17:18;99917.09;;;9.49;100.00
47985;BME280;33753;52.912;-7.342;2023-03-20T07:19:46;99922.97;;;9.52;100.00
47985;BME280;33753;52.912;-7.342;2023-03-20T07:22:20;99933.41;;;9.56;100.00
47985;BME280;33753;52.912;-7.342;2023-03-20T07:24:51;99935.75;;;9.59;100.00
47985;BME280;33753;52.912;-7.342;2023-03-20T07:27:22;99938.09;;;9.62;100.00
47985;BME280;33753;52.912;-7.342;2023-03-20T07:29:53;99933.00;;;9.67;100.00
47985;BME280;33753;52.912;-7.342;2023-03-20T07:32:23;99930.59;;;9.72;100.00
47985;BME280;33753;52.912;-7.342;2023-03-20T07:34:51;99928.19;;;9.77;100.00
47985;BME280;33753;52.912;-7.342;2023-03-20T07:37:21;99927.13;;;9.86;100.00
47985;BME280;33753;52.912;-7.342;2023-03-20T07:40:00;99932.84;;;9.92;100.00
47985;BME280;33753;52.912;-7.342;2023-03-20T07:42:34;99944.28;;;9.94;100.00
47985;BME280;33753;52.912;-7.342;2023-03-20T07:45:10;99939.38;;;9.97;100.00
47985;BME280;33753;52.912;-7.342;2023-03-20T07:47:44;99944.44;;;10.00;100.00
47985;BME280;33753;52.912;-7.342;2023-03-20T07:50:14;99943.19;;;10.03;100.00
47985;BME280;33753;52.912;-7.342;2023-03-20T07:52:49;99943.50;;;10.08;100.00
47985;BME280;33753;52.912;-7.342;2023-03-20T07:55:20;99942.50;;;10.09;100.00
47985;BME280;33753;52.912;-7.342;2023-03-20T07:57:48;99949.59;;;10.10;100.00
47985;BME280;33753;52.912;-7.342;2023-03-20T08:00:17;99955.94;;;10.17;100.00
47985;BME280;33753;52.912;-7.342;2023-03-20T08:02:46;99952.38;;;10.17;100.00
47985;BME280;33753;52.912;-7.342;2023-03-20T08:05:15;99942.78;;;10.14;100.00
47985;BME280;33753;52.912;-7.342;2023-03-20T08:07:44;99934.78;;;10.21;100.00
47985;BME280;33753;52.912;-7.342;2023-03-20T08:10:14;99920.97;;;10.16;100.00
47985;BME280;33753;52.912;-7.342;2023-03-20T08:12:43;99928.19;;;10.24;100.00
47985;BME280;33753;52.912;-7.342;2023-03-20T08:15:11;99926.97;;;10.26;100.00
47985;BME280;33753;52.912;-7.342;2023-03-20T08:17:41;99919.81;;;10.33;100.00
47985;BME280;33753;52.912;-7.342;2023-03-20T08:20:12;99916.59;;;10.38;100.00
47985;BME280;33753;52.912;-7.342;2023-03-20T08:22:43;99914.47;;;10.48;100.00
47985;BME280;33753;52.912;-7.342;2023-03-20T08:25:15;99919.16;;;10.54;100.00
47985;BME280;33753;52.912;-7.342;2023-03-20T08:27:44;99923.44;;;10.64;100.00
47985;BME280;33753;52.912;-7.342;2023-03-20T08:30:12;99923.16;;;10.74;100.00
47985;BME280;33753;52.912;-7.342;2023-03-20T08:32:41;99931.81;;;10.99;100.00
47985;BME280;33753;52.912;-7.342;2023-03-20T08:35:10;99922.00;;;11.13;100.00
47985;BME280;33753;52.912;-7.342;2023-03-20T08:37:58;99927.97;;;11.23;100.00
47985;BME280;33753;52.912;-7.342;2023-03-20T08:40:28;99928.84;;;11.23;100.00
47985;BME280;33753;52.912;-7.342;2023-03-20T08:42:57;99924.97;;;11.33;100.00
47985;BME280;33753;52.912;-7.342;2023-03-20T08:45:25;99931.19;;;11.48;100.00
47985;BME280;33753;52.912;-7.342;2023-03-20T08:47:54;99926.78;;;11.62;100.00
47985;BME280;33753;52.912;-7.342;2023-03-20T08:50:22;99923.06;;;11.63;100.00
47985;BME280;33753;52.912;-7.342;2023-03-20T08:52:51;99921.06;;;11.72;100.00
47985;BME280;33753;52.912;-7.342;2023-03-20T08:55:20;99920.66;;;11.75;100.00
47985;BME280;33753;52.912;-7.342;2023-03-20T08:57:49;99928.72;;;11.68;100.00
47985;BME280;33753;52.912;-7.342;2023-03-20T09:00:19;99921.81;;;11.66;100.00
47985;BME280;33753;52.912;-7.342;2023-03-20T09:02:48;99908.44;;;11.64;100.00
47985;BME280;33753;52.912;-7.342;2023-03-20T09:05:17;99904.44;;;11.60;100.00
47985;BME280;33753;52.912;-7.342;2023-03-20T09:07:46;99910.06;;;11.58;100.00
47985;BME280;33753;52.912;-7.342;2023-03-20T09:10:14;99900.38;;;11.49;100.00
47985;BME280;33753;52.912;-7.342;2023-03-20T09:12:43;99908.63;;;11.41;100.00
47985;BME280;33753;52.912;-7.342;2023-03-20T09:15:13;99905.28;;;11.39;100.00
47985;BME280;33753;52.912;-7.342;2023-03-20T09:17:41;99905.28;;;11.39;100.00
47985;BME280;33753;52.912;-7.342;2023-03-20T09:20:10;99914.41;;;11.38;100.00
47985;BME280;33753;52.912;-7.342;2023-03-20T09:22:39;99910.22;;;11.35;100.00
47985;BME280;33753;52.912;-7.342;2023-03-20T09:25:10;99896.09;;;11.40;100.00
47985;BME280;33753;52.912;-7.342;2023-03-20T09:27:38;99911.59;;;11.46;100.00
47985;BME280;33753;52.912;-7.342;2023-03-20T09:30:07;99911.22;;;11.49;100.00
47985;BME280;33753;52.912;-7.342;2023-03-20T09:32:37;99909.03;;;11.59;100.00
47985;BME280;33753;52.912;-7.342;2023-03-20T09:35:06;99904.13;;;11.70;100.00
47985;BME280;33753;52.912;-7.342;2023-03-20T09:37:35;99904.72;;;11.87;100.00
47985;BME280;33753;52.912;-7.342;2023-03-20T09:40:05;99899.75;;;11.90;100.00
47985;BME280;33753;52.912;-7.342;2023-03-20T09:42:41;99897.13;;;11.97;100.00
47985;BME280;33753;52.912;-7.342;2023-03-20T09:45:18;99897.13;;;11.97;100.00
47985;BME280;33753;52.912;-7.342;2023-03-20T09:47:57;99895.97;;;12.06;100.00
47985;BME280;33753;52.912;-7.342;2023-03-20T09:50:33;99888.94;;;12.12;100.00
47985;BME280;33753;52.912;-7.342;2023-03-20T09:53:07;99882.31;;;12.21;100.00
47985;BME280;33753;52.912;-7.342;2023-03-20T09:55:39;99885.00;;;12.15;100.00
47985;BME280;33753;52.912;-7.342;2023-03-20T09:58:11;99883.81;;;12.24;100.00
47985;BME280;33753;52.912;-7.342;2023-03-20T10:00:44;99882.19;;;12.30;100.00
47985;BME280;33753;52.912;-7.342;2023-03-20T10:03:30;99884.00;;;12.22;100.00
47985;BME280;33753;52.912;-7.342;2023-03-20T10:06:02;99893.63;;;12.25;100.00
47985;BME280;33753;52.912;-7.342;2023-03-20T10:08:34;99891.75;;;12.25;100.00
47985;BME280;33753;52.912;-7.342;2023-03-20T10:11:13;99883.22;;;12.28;100.00
47985;BME280;33753;52.912;-7.342;2023-03-20T10:14:01;99885.22;;;12.20;100.00
47985;BME280;33753;52.912;-7.342;2023-03-20T10:16:43;99876.75;;;12.30;100.00
47985;BME280;33753;52.912;-7.342;2023-03-20T10:19:21;99889.91;;;12.33;100.00
47985;BME280;33753;52.912;-7.342;2023-03-20T10:21:56;99896.63;;;12.37;100.00
47985;BME280;33753;52.912;-7.342;2023-03-20T10:24:31;99886.31;;;12.25;100.00
47985;BME280;33753;52.912;-7.342;2023-03-20T10:27:05;99883.06;;;12.37;100.00
47985;BME280;33753;52.912;-7.342;2023-03-20T10:29:41;99880.25;;;12.23;100.00
47985;BME280;33753;52.912;-7.342;2023-03-20T10:32:18;99871.19;;;12.38;100.00
47985;BME280;33753;52.912;-7.342;2023-03-20T10:37:58;99865.84;;;12.51;100.00
47985;BME280;33753;52.912;-7.342;2023-03-20T10:40:31;99876.75;;;12.58;100.00
47985;BME280;33753;52.912;-7.342;2023-03-20T10:43:07;99874.13;;;12.43;100.00
47985;BME280;33753;52.912;-7.342;2023-03-20T10:45:40;99872.63;;;12.34;100.00
47985;BME280;33753;52.912;-7.342;2023-03-20T10:48:16;99862.94;;;12.24;100.00
47985;BME280;33753;52.912;-7.342;2023-03-20T10:50:49;99863.19;;;12.30;100.00
47985;BME280;33753;52.912;-7.342;2023-03-20T10:53:35;99861.22;;;12.17;100.00
47985;BME280;33753;52.912;-7.342;2023-03-20T10:56:07;99849.00;;;12.27;100.00
47985;BME280;33753;52.912;-7.342;2023-03-20T10:58:39;99865.09;;;12.36;100.00
47985;BME280;33753;52.912;-7.342;2023-03-20T11:01:09;99862.03;;;12.39;100.00
47985;BME280;33753;52.912;-7.342;2023-03-20T11:03:38;99867.69;;;12.44;100.00
47985;BME280;33753;52.912;-7.342;2023-03-20T11:06:13;99862.94;;;12.24;100.00
47985;BME280;33753;52.912;-7.342;2023-03-20T11:08:48;99865.28;;;12.27;100.00
47985;BME280;33753;52.912;-7.342;2023-03-20T11:11:22;99862.03;;;12.39;100.00
47985;BME280;33753;52.912;-7.342;2023-03-20T11:13:51;99853.50;;;12.42;100.00
47985;BME280;33753;52.912;-7.342;2023-03-20T11:16:22;99850.84;;;12.55;100.00
47985;BME280;33753;52.912;-7.342;2023-03-20T11:18:51;99855.72;;;12.67;100.00
47985;BME280;33753;52.912;-7.342;2023-03-20T11:21:22;99848.00;;;12.70;100.00
47985;BME280;33753;52.912;-7.342;2023-03-20T11:23:54;99856.88;;;12.92;100.00
47985;BME280;33753;52.912;-7.342;2023-03-20T11:26:31;99842.94;;;13.02;100.00
47985;BME280;33753;52.912;-7.342;2023-03-20T11:29:04;99843.56;;;13.04;100.00
47985;BME280;33753;52.912;-7.342;2023-03-20T11:31:34;99821.00;;;13.04;100.00
47985;BME280;33753;52.912;-7.342;2023-03-20T11:34:22;99823.53;;;13.05;100.00
47985;BME280;33753;52.912;-7.342;2023-03-20T11:36:54;99808.09;;;13.12;100.00
47985;BME280;33753;52.912;-7.342;2023-03-20T11:39:37;99811.44;;;13.21;100.00
47985;BME280;33753;52.912;-7.342;2023-03-20T11:42:21;99809.03;;;13.40;100.00
47985;BME280;33753;52.912;-7.342;2023-03-20T11:44:59;99816.38;;;13.59;100.00
47985;BME280;33753;52.912;-7.342;2023-03-20T11:47:31;99806.56;;;13.85;100.00
47985;BME280;33753;52.912;-7.342;2023-03-20T11:50:03;99800.28;;;13.78;100.00
47985;BME280;33753;52.912;-7.342;2023-03-20T11:52:34;99788.78;;;13.69;100.00
47985;BME280;33753;52.912;-7.342;2023-03-20T11:55:22;99790.66;;;13.69;100.00
47985;BME280;33753;52.912;-7.342;2023-03-20T11:57:55;99783.97;;;13.58;100.00
47985;BME280;33753;52.912;-7.342;2023-03-20T12:00:26;99781.47;;;13.70;100.00
47985;BME280;33753;52.912;-7.342;2023-03-20T12:02:55;99773.91;;;13.72;100.00
47985;BME280;33753;52.912;-7.342;2023-03-20T12:05:28;99780.00;;;13.80;100.00
47985;BME280;33753;52.912;-7.342;2023-03-20T12:08:00;99779.53;;;14.24;100.00
47985;BME280;33753;52.912;-7.342;2023-03-20T12:10:35;99777.50;;;14.78;100.00
47985;BME280;33753;52.912;-7.342;2023-03-20T12:13:11;99769.63;;;15.01;100.00
47985;BME280;33753;52.912;-7.342;2023-03-20T12:15:43;99766.97;;;15.27;100.00
47985;BME280;33753;52.912;-7.342;2023-03-20T12:18:16;99747.69;;;15.28;100.00
47985;BME280;33753;52.912;-7.342;2023-03-20T12:21:03;99736.78;;;14.96;100.00
47985;BME280;33753;52.912;-7.342;2023-03-20T12:23:37;99726.34;;;14.93;100.00
47985;BME280;33753;52.912;-7.342;2023-03-20T12:26:11;99728.06;;;14.81;100.00
47985;BME280;33753;52.912;-7.342;2023-03-20T12:28:45;99730.22;;;14.59;100.00
47985;BME280;33753;52.912;-7.342;2023-03-20T12:31:21;99726.53;;;14.46;100.00
47985;BME280;33753;52.912;-7.342;2023-03-20T12:33:56;99726.09;;;14.43;100.00
47985;BME280;33753;52.912;-7.342;2023-03-20T12:36:31;99722.41;;;14.30;100.00
47985;BME280;33753;52.912;-7.342;2023-03-20T12:39:02;99725.94;;;14.31;100.00
47985;BME280;33753;52.912;-7.342;2023-03-20T12:41:39;99725.28;;;14.42;100.00
47985;BME280;33753;52.912;-7.342;2023-03-20T12:44:31;99708.38;;;14.33;100.00
47985;BME280;33753;52.912;-7.342;2023-03-20T12:47:13;99717.09;;;14.49;100.00
47985;BME280;33753;52.912;-7.342;2023-03-20T12:49:50;99703.53;;;14.35;100.00
47985;BME280;33753;52.912;-7.342;2023-03-20T12:52:28;99706.69;;;14.26;100.00
47985;BME280;33753;52.912;-7.342;2023-03-20T12:55:20;99696.53;;;13.94;100.00
47985;BME280;33753;52.912;-7.342;2023-03-20T12:58:00;99698.66;;;13.86;100.00
47985;BME280;33753;52.912;-7.342;2023-03-20T13:00:37;99704.50;;;13.76;100.00
47985;BME280;33753;52.912;-7.342;2023-03-20T13:03:21;99701.59;;;13.71;100.00
47985;BME280;33753;52.912;-7.342;2023-03-20T13:05:59;99698.88;;;13.71;100.00
47985;BME280;33753;52.912;-7.342;2023-03-20T13:08:43;99703.69;;;13.82;100.00
47985;BME280;33753;52.912;-7.342;2023-03-20T13:11:23;99696.09;;;13.97;100.00
47985;BME280;33753;52.912;-7.342;2023-03-20T13:14:01;99676.03;;;13.98;100.00
47985;BME280;33753;52.912;-7.342;2023-03-20T13:16:39;99670.97;;;14.09;100.00
47985;BME280;33753;52.912;-7.342;2023-03-20T13:19:21;99684.31;;;14.24;100.00
47985;BME280;33753;52.912;-7.342;2023-03-20T13:21:55;99669.47;;;14.20;100.00
47985;BME280;33753;52.912;-7.342;2023-03-20T13:24:35;99670.91;;;14.29;100.00
47985;BME280;33753;52.912;-7.342;2023-03-20T13:27:18;99651.28;;;14.20;100.00